sensor_id;sensor_type;location;lat;lon;timestamp;P1;durP1;ratioP1;P2;durP2;ratioP2
24631;SDS011;59977;48.782;9.190;2022-11-28T00:00:13;13.27;;;7.90;;
24631;SDS011;59977;48.782;9.190;2022-11-28T00:02:39;13.20;;;7.70;;
24631;SDS011;59977;48.782;9.190;2022-11-28T00:05:05;12.52;;;8.05;;
24631;SDS011;59977;48.782;9.190;2022-11-28T00:07:34;11.80;;;7.28;;
24631;SDS011;59977;48.782;9.190;2022-11-28T00:09:59;15.93;;;7.72;;
24631;SDS011;59977;48.782;9.190;2022-11-28T00:12:26;14.50;;;7.75;;
24631;SDS011;59977;48.782;9.190;2022-11-28T00:14:52;14.07;;;7.35;;
24631;SDS011;59977;48.782;9.190;2022-11-28T00:17:18;13.85;;;7.13;;
24631;SDS011;59977;48.782;9.190;2022-11-28T17:27:28;17.65;;;9.02;;
24631;SDS011;59977;48.782;9.190;2022-11-28T17:29:54;16.00;;;8.70;;
24631;SDS011;59977;48.782;9.190;2022-11-28T17:32:20;14.85;;;8.05;;
24631;SDS011;59977;48.782;9.190;2022-11-28T17:34:46;16.00;;;8.45;;
24631;SDS011;59977;48.782;9.190;2022-11-28T17:37:11;19.35;;;9.55;;
24631;SDS011;59977;48.782;9.190;2022-11-28T17:39:37;15.98;;;8.43;;
24631;SDS011;59977;48.782;9.190;2022-11-28T17:42:03;22.35;;;9.30;;
24631;SDS011;59977;48.782;9.190;2022-11-28T17:44:30;23.30;;;10.80;;
24631;SDS011;59977;48.782;9.190;2022-11-28T17:46:59;20.70;;;9.52;;
24631;SDS011;59977;48.782;9.190;2022-11-28T17:49:26;13.82;;;8.27;;
24631;SDS011;59977;48.782;9.190;2022-11-28T17:51:53;19.73;;;9.25;;
24631;SDS011;59977;48.782;9.190;2022-11-28T17:54:24;15.40;;;8.50;;
24631;SDS011;59977;48.782;9.190;2022-11-28T17:56:50;15.25;;;9.45;;
24631;SDS011;59977;48.782;9.190;2022-11-28T17:59:18;16.85;;;10.68;;
24631;SDS011;59977;48.782;9.190;2022-11-28T18:01:45;15.55;;;9.98;;
24631;SDS011;59977;48.782;9.190;2022-11-28T18:04:11;22.02;;;10.93;;
24631;SDS011;59977;48.782;9.190;2022-11-28T18:06:37;22.50;;;10.48;;
24631;SDS011;59977;48.782;9.190;2022-11-28T18:09:06;24.05;;;11.93;;
24631;SDS011;59977;48.782;9.190;2022-11-28T18:11:31;23.60;;;10.65;;
24631;SDS011;59977;48.782;9.190;2022-11-28T18:13:59;15.45;;;9.40;;
24631;SDS011;59977;48.782;9.190;2022-11-28T18:16:25;28.98;;;10.50;;
24631;SDS011;59977;48.782;9.190;2022-11-28T18:18:51;25.10;;;11.95;;
24631;SDS011;59977;48.782;9.190;2022-11-28T18:21:17;30.83;;;14.52;;
24631;SDS011;59977;48.782;9.190;2022-11-28T18:23:44;27.02;;;12.55;;
24631;SDS011;59977;48.782;9.190;2022-11-28T18:26:13;18.40;;;11.70;;
24631;SDS011;59977;48.782;9.190;2022-11-28T18:28:40;22.67;;;12.13;;
24631;SDS011;59977;48.782;9.190;2022-11-28T18:31:10;28.77;;;13.13;;
24631;SDS011;59977;48.782;9.190;2022-11-28T18:36:08;25.00;;;12.75;;
24631;SDS011;59977;48.782;9.190;2022-11-28T18:38:37;32.70;;;14.55;;
24631;SDS011;59977;48.782;9.190;2022-11-28T18:41:04;28.40;;;13.55;;
24631;SDS011;59977;48.782;9.190;2022-11-28T18:43:32;23.63;;;12.77;;
24631;SDS011;59977;48.782;9.190;2022-11-28T18:46:03;25.20;;;12.52;;
24631;SDS011;59977;48.782;9.190;2022-11-28T18:48:29;21.15;;;12.55;;
24631;SDS011;59977;48.782;9.190;2022-11-28T18:50:56;24.67;;;12.68;;
24631;SDS011;59977;48.782;9.190;2022-11-28T18:53:21;22.90;;;12.15;;
24631;SDS011;59977;48.782;9.190;2022-11-28T18:55:59;25.25;;;12.05;;
24631;SDS011;59977;48.782;9.190;2022-11-28T18:58:27;22.00;;;11.75;;
24631;SDS011;59977;48.782;9.190;2022-11-28T19:00:53;21.08;;;12.10;;
24631;SDS011;59977;48.782;9.190;2022-11-28T19:03:19;23.08;;;12.48;;
24631;SDS011;59977;48.782;9.190;2022-11-28T19:05:47;26.05;;;12.98;;
24631;SDS011;59977;48.782;9.190;2022-11-28T19:08:13;28.23;;;13.90;;
24631;SDS011;59977;48.782;9.190;2022-11-28T19:10:39;21.20;;;12.50;;
24631;SDS011;59977;48.782;9.190;2022-11-28T19:13:05;29.25;;;13.48;;
24631;SDS011;59977;48.782;9.190;2022-11-28T19:15:30;27.10;;;13.73;;
24631;SDS011;59977;48.782;9.190;2022-11-28T19:17:56;25.17;;;12.90;;
24631;SDS011;59977;48.782;9.190;2022-11-28T19:20:22;26.50;;;13.60;;
24631;SDS011;59977;48.782;9.190;2022-11-28T19:22:48;27.77;;;13.32;;
24631;SDS011;59977;48.782;9.190;2022-11-28T19:25:14;26.27;;;13.35;;
24631;SDS011;59977;48.782;9.190;2022-11-28T19:27:40;24.33;;;13.50;;
24631;SDS011;59977;48.782;9.190;2022-11-28T19:30:06;25.27;;;12.57;;
24631;SDS011;59977;48.782;9.190;2022-11-28T19:32:32;30.02;;;13.27;;
24631;SDS011;59977;48.782;9.190;2022-11-28T19:35:00;21.90;;;13.23;;
24631;SDS011;59977;48.782;9.190;2022-11-28T19:37:25;23.23;;;13.50;;
24631;SDS011;59977;48.782;9.190;2022-11-28T19:39:51;24.15;;;13.32;;
24631;SDS011;59977;48.782;9.190;2022-11-28T19:42:17;24.50;;;12.32;;
24631;SDS011;59977;48.782;9.190;2022-11-28T19:44:42;26.10;;;13.07;;
24631;SDS011;59977;48.782;9.190;2022-11-28T19:47:08;23.80;;;12.68;;
24631;SDS011;59977;48.782;9.190;2022-11-28T19:49:34;23.77;;;13.10;;
24631;SDS011;59977;48.782;9.190;2022-11-28T19:52:01;22.63;;;12.63;;
24631;SDS011;59977;48.782;9.190;2022-11-28T19:54:27;26.08;;;14.52;;
24631;SDS011;59977;48.782;9.190;2022-11-28T19:56:53;21.73;;;12.73;;
24631;SDS011;59977;48.782;9.190;2022-11-28T19:59:19;21.40;;;12.55;;
24631;SDS011;59977;48.782;9.190;2022-11-28T20:02:00;23.67;;;13.07;;
24631;SDS011;59977;48.782;9.190;2022-11-28T20:04:35;21.13;;;12.38;;
24631;SDS011;59977;48.782;9.190;2022-11-28T20:07:06;28.02;;;13.60;;
24631;SDS011;59977;48.782;9.190;2022-11-28T20:09:32;22.20;;;13.10;;
24631;SDS011;59977;48.782;9.190;2022-11-28T20:11:58;27.30;;;13.20;;
24631;SDS011;59977;48.782;9.190;2022-11-28T20:14:23;25.67;;;14.32;;
24631;SDS011;59977;48.782;9.190;2022-11-28T20:16:49;22.75;;;13.45;;
24631;SDS011;59977;48.782;9.190;2022-11-28T20:19:15;26.33;;;15.00;;
24631;SDS011;59977;48.782;9.190;2022-11-28T20:21:41;24.42;;;14.20;;
24631;SDS011;59977;48.782;9.190;2022-11-28T20:24:14;23.05;;;12.68;;
24631;SDS011;59977;48.782;9.190;2022-11-28T20:26:41;23.08;;;12.52;;
24631;SDS011;59977;48.782;9.190;2022-11-28T20:29:08;25.38;;;13.13;;
24631;SDS011;59977;48.782;9.190;2022-11-28T20:31:37;21.25;;;12.73;;
24631;SDS011;59977;48.782;9.190;2022-11-28T20:34:09;25.48;;;12.93;;
24631;SDS011;59977;48.782;9.190;2022-11-28T20:36:35;22.52;;;13.35;;
24631;SDS011;59977;48.782;9.190;2022-11-28T20:39:02;26.35;;;14.10;;
24631;SDS011;59977;48.782;9.190;2022-11-28T20:41:28;25.23;;;14.00;;
24631;SDS011;59977;48.782;9.190;2022-11-28T20:43:54;26.20;;;14.02;;
24631;SDS011;59977;48.782;9.190;2022-11-28T20:46:23;26.70;;;13.70;;
24631;SDS011;59977;48.782;9.190;2022-11-28T20:48:52;25.42;;;14.50;;
24631;SDS011;59977;48.782;9.190;2022-11-28T20:51:19;23.95;;;13.77;;
24631;SDS011;59977;48.782;9.190;2022-11-28T20:53:46;28.33;;;14.88;;
24631;SDS011;59977;48.782;9.190;2022-11-28T20:56:13;26.67;;;15.20;;
24631;SDS011;59977;48.782;9.190;2022-11-28T20:58:41;24.83;;;14.73;;
24631;SDS011;59977;48.782;9.190;2022-11-28T21:01:08;23.73;;;14.60;;
24631;SDS011;59977;48.782;9.190;2022-11-28T21:03:40;34.25;;;17.73;;
24631;SDS011;59977;48.782;9.190;2022-11-28T21:06:05;29.50;;;14.52;;
24631;SDS011;59977;48.782;9.190;2022-11-28T21:08:31;30.85;;;16.40;;
24631;SDS011;59977;48.782;9.190;2022-11-28T21:10:57;26.40;;;15.57;;
24631;SDS011;59977;48.782;9.190;2022-11-28T21:13:27;35.95;;;17.50;;
24631;SDS011;59977;48.782;9.190;2022-11-28T21:15:55;31.08;;;17.30;;
24631;SDS011;59977;48.782;9.190;2022-11-28T21:18:20;28.33;;;16.48;;
24631;SDS011;59977;48.782;9.190;2022-11-28T21:20:46;33.60;;;18.15;;
24631;SDS011;59977;48.782;9.190;2022-11-28T21:23:12;31.38;;;17.73;;
24631;SDS011;59977;48.782;9.190;2022-11-28T21:25:40;33.08;;;17.95;;
24631;SDS011;59977;48.782;9.190;2022-11-28T21:30:43;39.85;;;21.30;;
24631;SDS011;59977;48.782;9.190;2022-11-28T21:33:10;33.42;;;17.70;;
24631;SDS011;59977;48.782;9.190;2022-11-28T21:35:37;35.60;;;17.58;;
24631;SDS011;59977;48.782;9.190;2022-11-28T21:38:03;35.47;;;17.58;;
24631;SDS011;59977;48.782;9.190;2022-11-28T21:40:30;29.98;;;16.20;;
24631;SDS011;59977;48.782;9.190;2022-11-28T21:42:56;32.50;;;15.52;;
24631;SDS011;59977;48.782;9.190;2022-11-28T21:45:22;34.38;;;16.73;;
24631;SDS011;59977;48.782;9.190;2022-11-28T21:47:50;26.60;;;16.38;;
24631;SDS011;59977;48.782;9.190;2022-11-28T21:50:16;33.33;;;17.25;;
24631;SDS011;59977;48.782;9.190;2022-11-28T21:52:42;37.75;;;18.05;;
24631;SDS011;59977;48.782;9.190;2022-11-28T21:55:08;31.88;;;17.17;;
24631;SDS011;59977;48.782;9.190;2022-11-28T21:57:33;32.35;;;17.17;;
24631;SDS011;59977;48.782;9.190;2022-11-28T21:59:59;28.45;;;15.43;;
24631;SDS011;59977;48.782;9.190;2022-11-28T22:02:26;30.75;;;16.92;;
24631;SDS011;59977;48.782;9.190;2022-11-28T22:04:52;28.73;;;16.02;;
24631;SDS011;59977;48.782;9.190;2022-11-28T22:07:18;35.17;;;15.70;;
24631;SDS011;59977;48.782;9.190;2022-11-28T22:09:45;32.55;;;18.63;;
24631;SDS011;59977;48.782;9.190;2022-11-28T22:12:11;31.48;;;16.80;;
24631;SDS011;59977;48.782;9.190;2022-11-28T22:14:37;38.05;;;16.98;;
24631;SDS011;59977;48.782;9.190;2022-11-28T22:17:02;31.88;;;16.58;;
24631;SDS011;59977;48.782;9.190;2022-11-28T22:19:28;38.90;;;17.42;;
24631;SDS011;59977;48.782;9.190;2022-11-28T22:21:54;28.42;;;16.92;;
24631;SDS011;59977;48.782;9.190;2022-11-28T22:24:19;22.73;;;13.05;;
24631;SDS011;59977;48.782;9.190;2022-11-28T22:53:08;23.38;;;11.93;;
24631;SDS011;59977;48.782;9.190;2022-11-28T22:55:34;23.38;;;12.40;;
24631;SDS011;59977;48.782;9.190;2022-11-28T22:58:00;25.13;;;12.05;;
24631;SDS011;59977;48.782;9.190;2022-11-28T23:00:26;20.92;;;12.52;;
24631;SDS011;59977;48.782;9.190;2022-11-28T23:02:52;19.15;;;11.88;;
24631;SDS011;59977;48.782;9.190;2022-11-28T23:05:23;24.13;;;11.88;;
24631;SDS011;59977;48.782;9.190;2022-11-28T23:07:49;25.92;;;12.95;;
24631;SDS011;59977;48.782;9.190;2022-11-28T23:10:15;21.85;;;12.63;;
24631;SDS011;59977;48.782;9.190;2022-11-28T23:12:41;23.52;;;14.00;;
24631;SDS011;59977;48.782;9.190;2022-11-28T23:15:07;28.63;;;12.00;;
24631;SDS011;59977;48.782;9.190;2022-11-28T23:17:33;25.20;;;12.75;;
24631;SDS011;59977;48.782;9.190;2022-11-28T23:19:59;21.70;;;12.25;;
24631;SDS011;59977;48.782;9.190;2022-11-28T23:22:25;20.85;;;13.10;;
24631;SDS011;59977;48.782;9.190;2022-11-28T23:24:51;19.88;;;12.23;;
24631;SDS011;59977;48.782;9.190;2022-11-28T23:27:17;25.52;;;12.95;;
24631;SDS011;59977;48.782;9.190;2022-11-28T23:29:43;24.45;;;14.00;;
24631;SDS011;59977;48.782;9.190;2022-11-28T23:32:08;29.40;;;13.40;;
24631;SDS011;59977;48.782;9.190;2022-11-28T23:34:34;24.35;;;13.88;;
24631;SDS011;59977;48.782;9.190;2022-11-28T23:37:00;26.42;;;13.43;;
24631;SDS011;59977;48.782;9.190;2022-11-28T23:39:25;25.65;;;13.35;;
24631;SDS011;59977;48.782;9.190;2022-11-28T23:41:51;25.27;;;13.25;;
